sensor_id;sensor_type;location;lat;lon;timestamp;P1;durP1;ratioP1;P2;durP2;ratioP2
54813;SDS011;40714;51.378;-2.348;2023-08-20T00:00:36;4.97;;;1.13;;
54813;SDS011;40714;51.378;-2.348;2023-08-20T00:03:03;3.75;;;1.50;;
54813;SDS011;40714;51.378;-2.348;2023-08-20T00:05:30;5.97;;;1.30;;
54813;SDS011;40714;51.378;-2.348;2023-08-20T00:07:56;4.13;;;1.38;;
54813;SDS011;40714;51.378;-2.348;2023-08-20T00:10:23;4.65;;;1.08;;
54813;SDS011;40714;51.378;-2.348;2023-08-20T00:12:49;2.08;;;1.00;;
54813;SDS011;40714;51.378;-2.348;2023-08-20T00:15:15;3.35;;;0.90;;
54813;SDS011;40714;51.378;-2.348;2023-08-20T00:17:41;4.03;;;0.93;;
54813;SDS011;40714;51.378;-2.348;2023-08-20T00:20:07;5.05;;;1.35;;
54813;SDS011;40714;51.378;-2.348;2023-08-20T00:22:37;2.85;;;1.08;;
54813;SDS011;40714;51.378;-2.348;2023-08-20T00:25:03;5.10;;;1.42;;
54813;SDS011;40714;51.378;-2.348;2023-08-20T00:27:30;4.50;;;1.20;;
54813;SDS011;40714;51.378;-2.348;2023-08-20T00:29:56;3.95;;;1.02;;
54813;SDS011;40714;51.378;-2.348;2023-08-20T00:32:22;3.08;;;1.00;;
54813;SDS011;40714;51.378;-2.348;2023-08-20T00:34:48;2.92;;;0.80;;
54813;SDS011;40714;51.378;-2.348;2023-08-20T00:37:14;4.65;;;1.05;;
54813;SDS011;40714;51.378;-2.348;2023-08-20T00:39:40;4.10;;;1.00;;
54813;SDS011;40714;51.378;-2.348;2023-08-20T00:42:06;3.00;;;0.98;;
54813;SDS011;40714;51.378;-2.348;2023-08-20T00:44:32;5.22;;;1.15;;
54813;SDS011;40714;51.378;-2.348;2023-08-20T00:46:59;6.25;;;0.95;;
54813;SDS011;40714;51.378;-2.348;2023-08-20T00:49:25;2.88;;;0.88;;
54813;SDS011;40714;51.378;-2.348;2023-08-20T00:51:51;5.28;;;1.23;;
54813;SDS011;40714;51.378;-2.348;2023-08-20T00:54:18;4.25;;;1.33;;
54813;SDS011;40714;51.378;-2.348;2023-08-20T00:56:44;3.80;;;1.25;;
54813;SDS011;40714;51.378;-2.348;2023-08-20T00:59:10;4.60;;;1.20;;
54813;SDS011;40714;51.378;-2.348;2023-08-20T01:01:36;4.63;;;1.10;;
54813;SDS011;40714;51.378;-2.348;2023-08-20T01:04:02;4.80;;;1.00;;
54813;SDS011;40714;51.378;-2.348;2023-08-20T01:09:01;1.77;;;0.80;;
54813;SDS011;40714;51.378;-2.348;2023-08-20T01:11:33;3.63;;;0.98;;
54813;SDS011;40714;51.378;-2.348;2023-08-20T01:14:02;3.50;;;0.98;;
54813;SDS011;40714;51.378;-2.348;2023-08-20T01:16:28;4.07;;;1.10;;
54813;SDS011;40714;51.378;-2.348;2023-08-20T01:18:54;3.17;;;0.93;;
54813;SDS011;40714;51.378;-2.348;2023-08-20T01:21:24;2.72;;;1.17;;
54813;SDS011;40714;51.378;-2.348;2023-08-20T01:29:00;2.17;;;1.38;;
54813;SDS011;40714;51.378;-2.348;2023-08-20T01:31:26;2.55;;;1.10;;
54813;SDS011;40714;51.378;-2.348;2023-08-20T01:33:53;6.22;;;1.17;;
54813;SDS011;40714;51.378;-2.348;2023-08-20T01:36:19;4.32;;;1.67;;
54813;SDS011;40714;51.378;-2.348;2023-08-20T01:38:45;2.75;;;1.30;;
54813;SDS011;40714;51.378;-2.348;2023-08-20T01:41:11;3.20;;;1.02;;
54813;SDS011;40714;51.378;-2.348;2023-08-20T01:43:37;2.35;;;0.90;;
54813;SDS011;40714;51.378;-2.348;2023-08-20T01:46:03;3.97;;;0.90;;
54813;SDS011;40714;51.378;-2.348;2023-08-20T01:48:29;2.05;;;1.38;;
54813;SDS011;40714;51.378;-2.348;2023-08-20T01:50:55;3.50;;;1.10;;
54813;SDS011;40714;51.378;-2.348;2023-08-20T01:53:21;3.00;;;1.20;;
54813;SDS011;40714;51.378;-2.348;2023-08-20T01:55:47;3.25;;;1.17;;
54813;SDS011;40714;51.378;-2.348;2023-08-20T01:58:13;4.22;;;1.33;;
54813;SDS011;40714;51.378;-2.348;2023-08-20T02:00:40;2.08;;;1.23;;
54813;SDS011;40714;51.378;-2.348;2023-08-20T02:03:06;2.28;;;1.10;;
54813;SDS011;40714;51.378;-2.348;2023-08-20T02:05:32;3.83;;;1.00;;
54813;SDS011;40714;51.378;-2.348;2023-08-20T02:07:58;3.95;;;1.80;;
54813;SDS011;40714;51.378;-2.348;2023-08-20T02:10:24;1.95;;;1.20;;
54813;SDS011;40714;51.378;-2.348;2023-08-20T02:12:50;3.83;;;1.27;;
54813;SDS011;40714;51.378;-2.348;2023-08-20T02:15:16;4.03;;;1.20;;
54813;SDS011;40714;51.378;-2.348;2023-08-20T02:17:42;1.20;;;0.90;;
54813;SDS011;40714;51.378;-2.348;2023-08-20T02:20:08;2.13;;;1.00;;
54813;SDS011;40714;51.378;-2.348;2023-08-20T02:22:37;3.90;;;1.27;;
54813;SDS011;40714;51.378;-2.348;2023-08-20T02:25:03;5.18;;;1.23;;
54813;SDS011;40714;51.378;-2.348;2023-08-20T02:27:30;2.63;;;0.98;;
54813;SDS011;40714;51.378;-2.348;2023-08-20T02:29:56;2.83;;;1.00;;
54813;SDS011;40714;51.378;-2.348;2023-08-20T02:32:22;2.83;;;1.08;;
54813;SDS011;40714;51.378;-2.348;2023-08-20T02:34:49;3.40;;;1.20;;
54813;SDS011;40714;51.378;-2.348;2023-08-20T02:37:15;4.03;;;1.15;;
54813;SDS011;40714;51.378;-2.348;2023-08-20T02:39:41;4.57;;;1.00;;
54813;SDS011;40714;51.378;-2.348;2023-08-20T02:42:07;5.43;;;1.23;;
54813;SDS011;40714;51.378;-2.348;2023-08-20T02:44:33;4.03;;;1.17;;
54813;SDS011;40714;51.378;-2.348;2023-08-20T02:46:59;5.35;;;1.48;;
54813;SDS011;40714;51.378;-2.348;2023-08-20T02:49:25;2.80;;;1.20;;
54813;SDS011;40714;51.378;-2.348;2023-08-20T02:51:51;2.22;;;1.15;;
54813;SDS011;40714;51.378;-2.348;2023-08-20T02:54:17;1.75;;;1.20;;
54813;SDS011;40714;51.378;-2.348;2023-08-20T02:56:44;4.63;;;1.17;;
54813;SDS011;40714;51.378;-2.348;2023-08-20T02:59:10;3.75;;;1.70;;
54813;SDS011;40714;51.378;-2.348;2023-08-20T03:01:35;5.18;;;1.50;;
54813;SDS011;40714;51.378;-2.348;2023-08-20T03:04:01;1.95;;;1.38;;
54813;SDS011;40714;51.378;-2.348;2023-08-20T03:06:28;2.83;;;1.23;;
54813;SDS011;40714;51.378;-2.348;2023-08-20T03:08:54;3.47;;;1.15;;
54813;SDS011;40714;51.378;-2.348;2023-08-20T03:11:20;2.42;;;1.30;;
54813;SDS011;40714;51.378;-2.348;2023-08-20T03:13:46;5.65;;;1.33;;
54813;SDS011;40714;51.378;-2.348;2023-08-20T03:16:12;3.50;;;1.50;;
54813;SDS011;40714;51.378;-2.348;2023-08-20T03:18:38;4.10;;;1.40;;
54813;SDS011;40714;51.378;-2.348;2023-08-20T03:21:04;3.85;;;1.02;;
54813;SDS011;40714;51.378;-2.348;2023-08-20T03:23:30;3.22;;;1.15;;
54813;SDS011;40714;51.378;-2.348;2023-08-20T03:25:59;2.35;;;1.20;;
54813;SDS011;40714;51.378;-2.348;2023-08-20T03:28:25;3.90;;;1.48;;
54813;SDS011;40714;51.378;-2.348;2023-08-20T03:30:51;3.58;;;1.02;;
54813;SDS011;40714;51.378;-2.348;2023-08-20T03:33:17;5.13;;;1.48;;
54813;SDS011;40714;51.378;-2.348;2023-08-20T03:35:43;3.00;;;1.42;;
54813;SDS011;40714;51.378;-2.348;2023-08-20T03:38:09;5.82;;;1.35;;
54813;SDS011;40714;51.378;-2.348;2023-08-20T03:40:35;4.70;;;1.33;;
54813;SDS011;40714;51.378;-2.348;2023-08-20T03:43:01;4.68;;;1.92;;
54813;SDS011;40714;51.378;-2.348;2023-08-20T03:45:27;3.75;;;1.40;;
54813;SDS011;40714;51.378;-2.348;2023-08-20T03:47:55;2.35;;;1.02;;
54813;SDS011;40714;51.378;-2.348;2023-08-20T03:50:21;4.15;;;1.52;;
54813;SDS011;40714;51.378;-2.348;2023-08-20T03:52:47;3.35;;;1.42;;
54813;SDS011;40714;51.378;-2.348;2023-08-20T03:55:13;1.90;;;1.10;;
54813;SDS011;40714;51.378;-2.348;2023-08-20T03:57:39;2.75;;;1.10;;
54813;SDS011;40714;51.378;-2.348;2023-08-20T04:00:05;3.30;;;1.40;;
54813;SDS011;40714;51.378;-2.348;2023-08-20T04:02:34;6.75;;;1.67;;
54813;SDS011;40714;51.378;-2.348;2023-08-20T04:05:00;3.53;;;1.20;;
54813;SDS011;40714;51.378;-2.348;2023-08-20T04:07:26;4.53;;;1.30;;
54813;SDS011;40714;51.378;-2.348;2023-08-20T04:09:52;4.22;;;1.20;;
54813;SDS011;40714;51.378;-2.348;2023-08-20T04:12:18;2.28;;;1.40;;
54813;SDS011;40714;51.378;-2.348;2023-08-20T04:14:44;4.47;;;1.55;;
54813;SDS011;40714;51.378;-2.348;2023-08-20T04:17:10;3.35;;;1.17;;
54813;SDS011;40714;51.378;-2.348;2023-08-20T04:19:36;8.00;;;1.55;;
54813;SDS011;40714;51.378;-2.348;2023-08-20T04:22:02;2.75;;;1.20;;
54813;SDS011;40714;51.378;-2.348;2023-08-20T04:24:28;2.67;;;1.08;;
54813;SDS011;40714;51.378;-2.348;2023-08-20T04:26:54;2.72;;;1.13;;
54813;SDS011;40714;51.378;-2.348;2023-08-20T04:29:20;4.60;;;1.23;;
54813;SDS011;40714;51.378;-2.348;2023-08-20T04:31:46;3.80;;;1.38;;
54813;SDS011;40714;51.378;-2.348;2023-08-20T04:34:12;5.07;;;1.35;;
54813;SDS011;40714;51.378;-2.348;2023-08-20T04:36:38;1.92;;;1.10;;
54813;SDS011;40714;51.378;-2.348;2023-08-20T04:39:04;7.13;;;1.50;;
54813;SDS011;40714;51.378;-2.348;2023-08-20T04:41:29;4.78;;;1.40;;
54813;SDS011;40714;51.378;-2.348;2023-08-20T04:43:55;6.38;;;1.33;;
54813;SDS011;40714;51.378;-2.348;2023-08-20T04:46:21;6.03;;;1.63;;
54813;SDS011;40714;51.378;-2.348;2023-08-20T04:48:47;6.53;;;1.30;;
54813;SDS011;40714;51.378;-2.348;2023-08-20T04:51:13;4.30;;;1.40;;
54813;SDS011;40714;51.378;-2.348;2023-08-20T04:53:39;4.30;;;1.40;;
54813;SDS011;40714;51.378;-2.348;2023-08-20T04:56:05;4.90;;;1.70;;
54813;SDS011;40714;51.378;-2.348;2023-08-20T04:58:31;3.33;;;1.10;;
54813;SDS011;40714;51.378;-2.348;2023-08-20T05:00:57;3.65;;;1.25;;
54813;SDS011;40714;51.378;-2.348;2023-08-20T05:03:23;2.88;;;1.23;;
54813;SDS011;40714;51.378;-2.348;2023-08-20T05:05:50;3.00;;;1.55;;
54813;SDS011;40714;51.378;-2.348;2023-08-20T05:08:16;4.95;;;1.63;;
54813;SDS011;40714;51.378;-2.348;2023-08-20T05:10:42;2.28;;;1.42;;
54813;SDS011;40714;51.378;-2.348;2023-08-20T05:13:08;1.83;;;1.02;;
54813;SDS011;40714;51.378;-2.348;2023-08-20T05:15:34;2.53;;;1.27;;
54813;SDS011;40714;51.378;-2.348;2023-08-20T05:18:00;4.93;;;1.33;;
54813;SDS011;40714;51.378;-2.348;2023-08-20T05:20:26;4.78;;;1.30;;
54813;SDS011;40714;51.378;-2.348;2023-08-20T05:22:52;4.03;;;1.25;;
54813;SDS011;40714;51.378;-2.348;2023-08-20T05:25:18;6.38;;;1.40;;
54813;SDS011;40714;51.378;-2.348;2023-08-20T05:27:44;2.85;;;1.02;;
54813;SDS011;40714;51.378;-2.348;2023-08-20T05:30:10;3.80;;;1.30;;
54813;SDS011;40714;51.378;-2.348;2023-08-20T05:32:36;2.90;;;1.10;;
54813;SDS011;40714;51.378;-2.348;2023-08-20T05:35:03;4.15;;;1.40;;
54813;SDS011;40714;51.378;-2.348;2023-08-20T05:37:29;3.83;;;1.10;;
54813;SDS011;40714;51.378;-2.348;2023-08-20T05:39:55;5.55;;;1.30;;
54813;SDS011;40714;51.378;-2.348;2023-08-20T05:42:21;2.75;;;1.10;;
54813;SDS011;40714;51.378;-2.348;2023-08-20T05:44:47;6.55;;;1.33;;
54813;SDS011;40714;51.378;-2.348;2023-08-20T05:47:13;4.93;;;1.40;;
54813;SDS011;40714;51.378;-2.348;2023-08-20T05:49:39;4.75;;;1.73;;
54813;SDS011;40714;51.378;-2.348;2023-08-20T05:52:05;5.15;;;1.83;;
54813;SDS011;40714;51.378;-2.348;2023-08-20T05:54:31;3.92;;;1.40;;
54813;SDS011;40714;51.378;-2.348;2023-08-20T05:56:58;2.72;;;1.13;;
54813;SDS011;40714;51.378;-2.348;2023-08-20T05:59:24;3.30;;;1.30;;
54813;SDS011;40714;51.378;-2.348;2023-08-20T06:01:50;3.63;;;1.30;;
54813;SDS011;40714;51.378;-2.348;2023-08-20T06:04:16;4.43;;;2.55;;
54813;SDS011;40714;51.378;-2.348;2023-08-20T06:06:43;4.28;;;1.70;;
54813;SDS011;40714;51.378;-2.348;2023-08-20T06:09:09;4.90;;;1.30;;
54813;SDS011;40714;51.378;-2.348;2023-08-20T06:11:35;4.57;;;1.30;;
54813;SDS011;40714;51.378;-2.348;2023-08-20T06:14:01;4.10;;;1.40;;
54813;SDS011;40714;51.378;-2.348;2023-08-20T06:16:27;3.65;;;1.10;;
54813;SDS011;40714;51.378;-2.348;2023-08-20T06:18:53;3.38;;;1.27;;
54813;SDS011;40714;51.378;-2.348;2023-08-20T06:21:19;5.03;;;1.63;;
54813;SDS011;40714;51.378;-2.348;2023-08-20T06:23:45;4.28;;;1.77;;
54813;SDS011;40714;51.378;-2.348;2023-08-20T06:26:11;4.45;;;1.50;;
54813;SDS011;40714;51.378;-2.348;2023-08-20T06:28:37;4.47;;;1.20;;
54813;SDS011;40714;51.378;-2.348;2023-08-20T06:31:04;3.97;;;1.65;;
54813;SDS011;40714;51.378;-2.348;2023-08-20T06:33:30;6.32;;;1.73;;
54813;SDS011;40714;51.378;-2.348;2023-08-20T06:35:56;2.92;;;1.27;;
54813;SDS011;40714;51.378;-2.348;2023-08-20T06:38:22;2.05;;;1.05;;
54813;SDS011;40714;51.378;-2.348;2023-08-20T06:40:48;5.22;;;1.60;;
54813;SDS011;40714;51.378;-2.348;2023-08-20T06:43:15;5.00;;;1.83;;
54813;SDS011;40714;51.378;-2.348;2023-08-20T06:45:41;3.28;;;1.10;;
54813;SDS011;40714;51.378;-2.348;2023-08-20T06:48:07;3.20;;;1.20;;
54813;SDS011;40714;51.378;-2.348;2023-08-20T06:50:33;3.85;;;1.00;;
54813;SDS011;40714;51.378;-2.348;2023-08-20T06:52:59;2.63;;;1.60;;
54813;SDS011;40714;51.378;-2.348;2023-08-20T06:55:25;6.20;;;1.50;;
54813;SDS011;40714;51.378;-2.348;2023-08-20T06:57:51;1.27;;;0.90;;
54813;SDS011;40714;51.378;-2.348;2023-08-20T07:00:17;12.50;;;1.67;;
54813;SDS011;40714;51.378;-2.348;2023-08-20T07:02:44;6.18;;;1.10;;
54813;SDS011;40714;51.378;-2.348;2023-08-20T07:05:10;1.45;;;1.10;;
54813;SDS011;40714;51.378;-2.348;2023-08-20T07:07:36;6.18;;;1.23;;
54813;SDS011;40714;51.378;-2.348;2023-08-20T07:10:02;5.65;;;2.08;;
54813;SDS011;40714;51.378;-2.348;2023-08-20T07:12:28;4.72;;;1.60;;
54813;SDS011;40714;51.378;-2.348;2023-08-20T07:14:54;3.00;;;1.10;;
54813;SDS011;40714;51.378;-2.348;2023-08-20T07:17:20;7.38;;;1.30;;
54813;SDS011;40714;51.378;-2.348;2023-08-20T07:19:46;3.65;;;1.73;;
54813;SDS011;40714;51.378;-2.348;2023-08-20T07:22:12;2.00;;;1.05;;
54813;SDS011;40714;51.378;-2.348;2023-08-20T07:24:38;2.72;;;1.20;;
54813;SDS011;40714;51.378;-2.348;2023-08-20T07:27:04;2.38;;;1.05;;
54813;SDS011;40714;51.378;-2.348;2023-08-20T07:29:36;4.93;;;1.50;;
54813;SDS011;40714;51.378;-2.348;2023-08-20T07:32:02;2.65;;;1.30;;
54813;SDS011;40714;51.378;-2.348;2023-08-20T07:34:28;4.32;;;1.33;;
54813;SDS011;40714;51.378;-2.348;2023-08-20T07:36:55;3.05;;;1.08;;
54813;SDS011;40714;51.378;-2.348;2023-08-20T07:39:22;4.82;;;1.30;;
54813;SDS011;40714;51.378;-2.348;2023-08-20T07:41:48;3.88;;;1.40;;
54813;SDS011;40714;51.378;-2.348;2023-08-20T07:44:14;3.45;;;1.40;;
54813;SDS011;40714;51.378;-2.348;2023-08-20T07:46:40;5.20;;;1.30;;
54813;SDS011;40714;51.378;-2.348;2023-08-20T07:49:06;0.85;;;0.75;;
54813;SDS011;40714;51.378;-2.348;2023-08-20T07:51:32;2.20;;;1.30;;
54813;SDS011;40714;51.378;-2.348;2023-08-20T07:53:58;2.72;;;1.23;;
54813;SDS011;40714;51.378;-2.348;2023-08-20T07:56:24;6.20;;;1.10;;
54813;SDS011;40714;51.378;-2.348;2023-08-20T07:58:50;3.92;;;1.40;;
54813;SDS011;40714;51.378;-2.348;2023-08-20T08:01:16;2.40;;;0.75;;
54813;SDS011;40714;51.378;-2.348;2023-08-20T08:03:42;3.70;;;1.02;;
54813;SDS011;40714;51.378;-2.348;2023-08-20T08:06:08;2.85;;;1.00;;
54813;SDS011;40714;51.378;-2.348;2023-08-20T08:08:34;2.72;;;1.10;;
54813;SDS011;40714;51.378;-2.348;2023-08-20T08:11:00;1.75;;;1.00;;
54813;SDS011;40714;51.378;-2.348;2023-08-20T08:13:26;2.85;;;1.08;;
54813;SDS011;40714;51.378;-2.348;2023-08-20T08:15:52;2.15;;;0.90;;
54813;SDS011;40714;51.378;-2.348;2023-08-20T08:18:19;4.13;;;0.98;;
54813;SDS011;40714;51.378;-2.348;2023-08-20T08:20:45;3.20;;;1.00;;
54813;SDS011;40714;51.378;-2.348;2023-08-20T08:23:11;1.50;;;1.00;;
54813;SDS011;40714;51.378;-2.348;2023-08-20T08:25:37;1.55;;;1.17;;
54813;SDS011;40714;51.378;-2.348;2023-08-20T08:28:04;2.33;;;1.00;;
54813;SDS011;40714;51.378;-2.348;2023-08-20T08:30:30;4.15;;;1.00;;
54813;SDS011;40714;51.378;-2.348;2023-08-20T08:32:56;2.92;;;1.05;;
54813;SDS011;40714;51.378;-2.348;2023-08-20T08:35:23;3.35;;;1.02;;
54813;SDS011;40714;51.378;-2.348;2023-08-20T08:37:49;2.10;;;0.60;;
54813;SDS011;40714;51.378;-2.348;2023-08-20T08:40:15;2.50;;;0.93;;
54813;SDS011;40714;51.378;-2.348;2023-08-20T08:42:41;2.80;;;0.93;;
54813;SDS011;40714;51.378;-2.348;2023-08-20T08:45:08;3.70;;;0.95;;
54813;SDS011;40714;51.378;-2.348;2023-08-20T08:47:36;2.00;;;0.85;;
54813;SDS011;40714;51.378;-2.348;2023-08-20T08:50:02;1.52;;;0.75;;
54813;SDS011;40714;51.378;-2.348;2023-08-20T08:52:28;2.78;;;1.23;;
54813;SDS011;40714;51.378;-2.348;2023-08-20T08:54:54;2.97;;;1.05;;
54813;SDS011;40714;51.378;-2.348;2023-08-20T08:57:20;1.65;;;0.73;;
54813;SDS011;40714;51.378;-2.348;2023-08-20T08:59:46;2.95;;;0.75;;
54813;SDS011;40714;51.378;-2.348;2023-08-20T09:02:12;4.32;;;1.20;;
54813;SDS011;40714;51.378;-2.348;2023-08-20T09:04:39;0.63;;;0.55;;
54813;SDS011;40714;51.378;-2.348;2023-08-20T09:07:05;1.17;;;0.70;;
54813;SDS011;40714;51.378;-2.348;2023-08-20T09:09:31;3.42;;;0.90;;
54813;SDS011;40714;51.378;-2.348;2023-08-20T09:11:57;2.78;;;0.80;;
54813;SDS011;40714;51.378;-2.348;2023-08-20T09:14:24;3.25;;;0.52;;
54813;SDS011;40714;51.378;-2.348;2023-08-20T09:17:00;1.85;;;0.70;;
54813;SDS011;40714;51.378;-2.348;2023-08-20T09:19:30;3.22;;;0.90;;
54813;SDS011;40714;51.378;-2.348;2023-08-20T09:21:58;4.35;;;0.85;;
54813;SDS011;40714;51.378;-2.348;2023-08-20T09:25:06;4.68;;;1.13;;
54813;SDS011;40714;51.378;-2.348;2023-08-20T09:27:14;0.82;;;0.50;;
54813;SDS011;40714;51.378;-2.348;2023-08-20T09:29:46;1.80;;;0.70;;
54813;SDS011;40714;51.378;-2.348;2023-08-20T09:32:14;2.92;;;0.77;;
54813;SDS011;40714;51.378;-2.348;2023-08-20T09:34:40;1.85;;;0.80;;
54813;SDS011;40714;51.378;-2.348;2023-08-20T09:37:13;1.42;;;0.70;;
54813;SDS011;40714;51.378;-2.348;2023-08-20T09:39:39;2.38;;;0.82;;
54813;SDS011;40714;51.378;-2.348;2023-08-20T09:42:06;1.88;;;0.65;;
54813;SDS011;40714;51.378;-2.348;2023-08-20T09:44:33;2.58;;;0.82;;
54813;SDS011;40714;51.378;-2.348;2023-08-20T09:47:01;4.75;;;1.13;;
54813;SDS011;40714;51.378;-2.348;2023-08-20T09:49:28;2.38;;;0.82;;
54813;SDS011;40714;51.378;-2.348;2023-08-20T09:51:56;1.77;;;0.90;;
54813;SDS011;40714;51.378;-2.348;2023-08-20T09:57:02;2.53;;;0.63;;
54813;SDS011;40714;51.378;-2.348;2023-08-20T09:59:33;2.28;;;0.80;;
54813;SDS011;40714;51.378;-2.348;2023-08-20T10:02:01;0.60;;;0.57;;
54813;SDS011;40714;51.378;-2.348;2023-08-20T10:04:27;1.27;;;0.60;;
54813;SDS011;40714;51.378;-2.348;2023-08-20T10:06:54;0.90;;;0.60;;
54813;SDS011;40714;51.378;-2.348;2023-08-20T10:09:21;1.05;;;0.68;;
54813;SDS011;40714;51.378;-2.348;2023-08-20T10:11:47;3.00;;;1.05;;
54813;SDS011;40714;51.378;-2.348;2023-08-20T10:14:13;1.90;;;0.75;;
54813;SDS011;40714;51.378;-2.348;2023-08-20T10:16:39;2.17;;;0.63;;
54813;SDS011;40714;51.378;-2.348;2023-08-20T10:19:05;1.23;;;0.70;;
54813;SDS011;40714;51.378;-2.348;2023-08-20T10:21:32;1.60;;;0.70;;
54813;SDS011;40714;51.378;-2.348;2023-08-20T10:24:02;2.22;;;0.75;;
54813;SDS011;40714;51.378;-2.348;2023-08-20T10:26:28;3.22;;;0.77;;
54813;SDS011;40714;51.378;-2.348;2023-08-20T10:29:34;0.77;;;0.60;;
54813;SDS011;40714;51.378;-2.348;2023-08-20T10:31:46;2.08;;;0.60;;
54813;SDS011;40714;51.378;-2.348;2023-08-20T10:34:12;1.33;;;0.80;;
54813;SDS011;40714;51.378;-2.348;2023-08-20T10:37:00;1.98;;;0.63;;
54813;SDS011;40714;51.378;-2.348;2023-08-20T10:39:27;1.92;;;0.65;;
54813;SDS011;40714;51.378;-2.348;2023-08-20T10:42:09;1.02;;;0.63;;
54813;SDS011;40714;51.378;-2.348;2023-08-20T10:47:21;2.80;;;0.70;;
54813;SDS011;40714;51.378;-2.348;2023-08-20T10:49:52;2.00;;;0.60;;
54813;SDS011;40714;51.378;-2.348;2023-08-20T10:52:27;1.73;;;0.90;;
54813;SDS011;40714;51.378;-2.348;2023-08-20T10:54:55;2.33;;;0.55;;
54813;SDS011;40714;51.378;-2.348;2023-08-20T10:57:21;0.98;;;0.57;;
54813;SDS011;40714;51.378;-2.348;2023-08-20T10:59:59;3.93;;;0.80;;
54813;SDS011;40714;51.378;-2.348;2023-08-20T11:02:29;1.75;;;0.68;;
54813;SDS011;40714;51.378;-2.348;2023-08-20T11:04:55;3.63;;;0.80;;
54813;SDS011;40714;51.378;-2.348;2023-08-20T11:07:21;1.50;;;0.70;;
54813;SDS011;40714;51.378;-2.348;2023-08-20T11:09:47;1.58;;;0.68;;
54813;SDS011;40714;51.378;-2.348;2023-08-20T11:12:14;2.13;;;0.70;;
54813;SDS011;40714;51.378;-2.348;2023-08-20T11:14:41;2.60;;;0.70;;
54813;SDS011;40714;51.378;-2.348;2023-08-20T11:17:07;2.55;;;0.90;;
54813;SDS011;40714;51.378;-2.348;2023-08-20T11:19:33;3.40;;;0.77;;
54813;SDS011;40714;51.378;-2.348;2023-08-20T11:21:59;1.92;;;0.73;;
54813;SDS011;40714;51.378;-2.348;2023-08-20T11:24:28;2.20;;;0.60;;
54813;SDS011;40714;51.378;-2.348;2023-08-20T11:26:54;2.55;;;0.70;;
54813;SDS011;40714;51.378;-2.348;2023-08-20T11:29:20;2.20;;;0.70;;
54813;SDS011;40714;51.378;-2.348;2023-08-20T11:31:47;1.42;;;0.55;;
54813;SDS011;40714;51.378;-2.348;2023-08-20T11:34:13;2.95;;;0.85;;
54813;SDS011;40714;51.378;-2.348;2023-08-20T11:36:39;1.25;;;0.70;;
54813;SDS011;40714;51.378;-2.348;2023-08-20T11:39:06;2.67;;;0.88;;
54813;SDS011;40714;51.378;-2.348;2023-08-20T11:41:35;3.28;;;0.70;;
54813;SDS011;40714;51.378;-2.348;2023-08-20T11:44:01;3.13;;;0.80;;
54813;SDS011;40714;51.378;-2.348;2023-08-20T11:46:28;1.50;;;0.60;;
54813;SDS011;40714;51.378;-2.348;2023-08-20T11:49:04;2.28;;;0.70;;
54813;SDS011;40714;51.378;-2.348;2023-08-20T11:51:44;0.77;;;0.45;;
54813;SDS011;40714;51.378;-2.348;2023-08-20T11:54:12;2.72;;;0.65;;
54813;SDS011;40714;51.378;-2.348;2023-08-20T11:56:48;1.33;;;0.40;;
54813;SDS011;40714;51.378;-2.348;2023-08-20T11:59:15;0.93;;;0.50;;
54813;SDS011;40714;51.378;-2.348;2023-08-20T12:01:41;1.02;;;0.32;;
54813;SDS011;40714;51.378;-2.348;2023-08-20T12:04:07;2.88;;;0.50;;
54813;SDS011;40714;51.378;-2.348;2023-08-20T12:06:34;0.73;;;0.40;;
54813;SDS011;40714;51.378;-2.348;2023-08-20T12:09:01;2.75;;;0.47;;
54813;SDS011;40714;51.378;-2.348;2023-08-20T12:11:29;1.95;;;0.65;;
54813;SDS011;40714;51.378;-2.348;2023-08-20T12:13:55;3.20;;;0.50;;
54813;SDS011;40714;51.378;-2.348;2023-08-20T12:16:22;1.15;;;0.75;;
54813;SDS011;40714;51.378;-2.348;2023-08-20T12:18:51;1.35;;;0.60;;
54813;SDS011;40714;51.378;-2.348;2023-08-20T12:21:17;2.78;;;0.80;;
54813;SDS011;40714;51.378;-2.348;2023-08-20T12:23:44;1.35;;;0.60;;
54813;SDS011;40714;51.378;-2.348;2023-08-20T12:26:10;1.48;;;0.63;;
54813;SDS011;40714;51.378;-2.348;2023-08-20T12:28:36;1.55;;;0.70;;
54813;SDS011;40714;51.378;-2.348;2023-08-20T12:31:02;0.90;;;0.47;;
54813;SDS011;40714;51.378;-2.348;2023-08-20T12:33:28;2.17;;;0.57;;
54813;SDS011;40714;51.378;-2.348;2023-08-20T12:35:54;0.93;;;0.45;;
54813;SDS011;40714;51.378;-2.348;2023-08-20T12:38:20;1.35;;;0.40;;
54813;SDS011;40714;51.378;-2.348;2023-08-20T12:40:46;2.42;;;0.70;;
54813;SDS011;40714;51.378;-2.348;2023-08-20T12:43:12;1.20;;;0.60;;
54813;SDS011;40714;51.378;-2.348;2023-08-20T12:45:38;1.50;;;0.90;;
54813;SDS011;40714;51.378;-2.348;2023-08-20T12:48:05;2.13;;;0.50;;
54813;SDS011;40714;51.378;-2.348;2023-08-20T12:50:32;1.90;;;0.75;;
54813;SDS011;40714;51.378;-2.348;2023-08-20T12:52:58;0.68;;;0.50;;
54813;SDS011;40714;51.378;-2.348;2023-08-20T12:55:24;2.75;;;0.75;;
54813;SDS011;40714;51.378;-2.348;2023-08-20T12:57:57;2.90;;;0.63;;
54813;SDS011;40714;51.378;-2.348;2023-08-20T13:00:23;0.60;;;0.55;;
54813;SDS011;40714;51.378;-2.348;2023-08-20T13:02:50;3.65;;;0.60;;
54813;SDS011;40714;51.378;-2.348;2023-08-20T13:05:16;1.50;;;1.00;;
54813;SDS011;40714;51.378;-2.348;2023-08-20T13:07:42;1.50;;;0.70;;
54813;SDS011;40714;51.378;-2.348;2023-08-20T13:10:09;1.80;;;0.52;;
54813;SDS011;40714;51.378;-2.348;2023-08-20T13:12:35;1.83;;;0.75;;
54813;SDS011;40714;51.378;-2.348;2023-08-20T13:15:02;1.88;;;0.55;;
54813;SDS011;40714;51.378;-2.348;2023-08-20T13:17:29;2.03;;;0.80;;
54813;SDS011;40714;51.378;-2.348;2023-08-20T13:19:55;0.80;;;0.68;;
54813;SDS011;40714;51.378;-2.348;2023-08-20T13:22:21;2.25;;;0.80;;
54813;SDS011;40714;51.378;-2.348;2023-08-20T13:24:47;3.40;;;0.70;;
54813;SDS011;40714;51.378;-2.348;2023-08-20T13:27:13;1.35;;;0.70;;
54813;SDS011;40714;51.378;-2.348;2023-08-20T13:29:42;2.45;;;0.73;;
54813;SDS011;40714;51.378;-2.348;2023-08-20T13:32:08;0.80;;;0.60;;
54813;SDS011;40714;51.378;-2.348;2023-08-20T13:34:34;1.15;;;0.80;;
54813;SDS011;40714;51.378;-2.348;2023-08-20T13:37:00;1.13;;;0.40;;
54813;SDS011;40714;51.378;-2.348;2023-08-20T13:39:26;1.85;;;0.70;;
54813;SDS011;40714;51.378;-2.348;2023-08-20T13:41:52;0.85;;;0.63;;
54813;SDS011;40714;51.378;-2.348;2023-08-20T13:44:19;1.10;;;0.70;;
54813;SDS011;40714;51.378;-2.348;2023-08-20T13:46:45;3.15;;;1.25;;
54813;SDS011;40714;51.378;-2.348;2023-08-20T13:49:11;1.38;;;0.70;;
54813;SDS011;40714;51.378;-2.348;2023-08-20T13:51:37;0.90;;;0.60;;
54813;SDS011;40714;51.378;-2.348;2023-08-20T13:54:03;2.00;;;0.65;;
54813;SDS011;40714;51.378;-2.348;2023-08-20T13:56:30;2.63;;;1.30;;
54813;SDS011;40714;51.378;-2.348;2023-08-20T13:58:56;1.08;;;0.57;;
54813;SDS011;40714;51.378;-2.348;2023-08-20T14:01:22;2.63;;;0.80;;
54813;SDS011;40714;51.378;-2.348;2023-08-20T14:03:48;2.20;;;0.70;;
54813;SDS011;40714;51.378;-2.348;2023-08-20T14:06:15;1.40;;;0.70;;
54813;SDS011;40714;51.378;-2.348;2023-08-20T14:08:41;1.30;;;0.65;;
54813;SDS011;40714;51.378;-2.348;2023-08-20T14:11:08;2.50;;;0.60;;
54813;SDS011;40714;51.378;-2.348;2023-08-20T14:13:34;2.30;;;0.70;;
54813;SDS011;40714;51.378;-2.348;2023-08-20T14:16:00;1.85;;;0.80;;
54813;SDS011;40714;51.378;-2.348;2023-08-20T14:18:27;1.10;;;0.63;;
54813;SDS011;40714;51.378;-2.348;2023-08-20T14:20:53;0.70;;;0.50;;
54813;SDS011;40714;51.378;-2.348;2023-08-20T14:23:19;0.80;;;0.57;;
54813;SDS011;40714;51.378;-2.348;2023-08-20T14:25:45;1.15;;;0.75;;
54813;SDS011;40714;51.378;-2.348;2023-08-20T14:28:11;2.53;;;0.68;;
54813;SDS011;40714;51.378;-2.348;2023-08-20T14:30:37;2.05;;;0.70;;
54813;SDS011;40714;51.378;-2.348;2023-08-20T14:33:04;1.17;;;0.50;;
54813;SDS011;40714;51.378;-2.348;2023-08-20T14:35:31;0.75;;;0.55;;
54813;SDS011;40714;51.378;-2.348;2023-08-20T14:37:57;0.73;;;0.60;;
54813;SDS011;40714;51.378;-2.348;2023-08-20T14:40:23;1.02;;;0.60;;
54813;SDS011;40714;51.378;-2.348;2023-08-20T14:42:49;1.40;;;0.60;;